sensor_id;sensor_type;location;lat;lon;timestamp;P1;durP1;ratioP1;P2;durP2;ratioP2
15454;SDS011;21057;51.024;7.540;2023-06-22T00:02:59;16.85;;;15.70;;
15454;SDS011;21057;51.024;7.540;2023-06-22T00:10:37;16.45;;;15.35;;
15454;SDS011;21057;51.024;7.540;2023-06-22T00:13:05;16.52;;;15.32;;
15454;SDS011;21057;51.024;7.540;2023-06-22T00:15:34;15.88;;;14.85;;
15454;SDS011;21057;51.024;7.540;2023-06-22T00:18:04;16.15;;;15.15;;
15454;SDS011;21057;51.024;7.540;2023-06-22T00:20:32;16.17;;;15.07;;
15454;SDS011;21057;51.024;7.540;2023-06-22T00:23:02;16.63;;;15.57;;
15454;SDS011;21057;51.024;7.540;2023-06-22T00:25:35;16.42;;;15.30;;
15454;SDS011;21057;51.024;7.540;2023-06-22T00:28:03;16.38;;;15.27;;
15454;SDS011;21057;51.024;7.540;2023-06-22T00:30:32;16.05;;;14.80;;
15454;SDS011;21057;51.024;7.540;2023-06-22T00:33:00;16.10;;;15.00;;
15454;SDS011;21057;51.024;7.540;2023-06-22T00:35:28;16.08;;;14.98;;
15454;SDS011;21057;51.024;7.540;2023-06-22T00:37:58;16.00;;;14.90;;
15454;SDS011;21057;51.024;7.540;2023-06-22T00:40:27;15.32;;;14.27;;
15454;SDS011;21057;51.024;7.540;2023-06-22T00:42:54;16.48;;;15.00;;
15454;SDS011;21057;51.024;7.540;2023-06-22T00:45:24;15.60;;;14.50;;
15454;SDS011;21057;51.024;7.540;2023-06-22T00:47:51;16.58;;;15.48;;
15454;SDS011;21057;51.024;7.540;2023-06-22T00:50:21;16.88;;;15.60;;
15454;SDS011;21057;51.024;7.540;2023-06-22T00:52:51;17.13;;;16.00;;
15454;SDS011;21057;51.024;7.540;2023-06-22T00:55:19;17.95;;;16.75;;
15454;SDS011;21057;51.024;7.540;2023-06-22T00:57:47;16.42;;;15.32;;
15454;SDS011;21057;51.024;7.540;2023-06-22T01:00:14;16.00;;;14.90;;
15454;SDS011;21057;51.024;7.540;2023-06-22T01:02:44;16.60;;;15.48;;
15454;SDS011;21057;51.024;7.540;2023-06-22T01:05:17;16.08;;;15.02;;
15454;SDS011;21057;51.024;7.540;2023-06-22T01:07:47;16.27;;;15.20;;
15454;SDS011;21057;51.024;7.540;2023-06-22T01:10:27;16.20;;;15.02;;
15454;SDS011;21057;51.024;7.540;2023-06-22T01:13:01;17.27;;;16.08;;
15454;SDS011;21057;51.024;7.540;2023-06-22T01:15:31;16.42;;;15.23;;
15454;SDS011;21057;51.024;7.540;2023-06-22T01:18:05;15.63;;;14.50;;
15454;SDS011;21057;51.024;7.540;2023-06-22T01:20:36;16.23;;;15.15;;
15454;SDS011;21057;51.024;7.540;2023-06-22T01:23:09;16.27;;;15.07;;
15454;SDS011;21057;51.024;7.540;2023-06-22T01:25:45;16.90;;;15.60;;
15454;SDS011;21057;51.024;7.540;2023-06-22T01:28:19;16.40;;;15.10;;
15454;SDS011;21057;51.024;7.540;2023-06-22T01:30:52;16.17;;;15.02;;
15454;SDS011;21057;51.024;7.540;2023-06-22T01:33:28;17.17;;;15.88;;
15454;SDS011;21057;51.024;7.540;2023-06-22T01:35:57;16.95;;;15.85;;
15454;SDS011;21057;51.024;7.540;2023-06-22T01:38:26;18.73;;;17.23;;
15454;SDS011;21057;51.024;7.540;2023-06-22T01:40:55;16.80;;;15.68;;
15454;SDS011;21057;51.024;7.540;2023-06-22T01:43:24;16.92;;;15.57;;
15454;SDS011;21057;51.024;7.540;2023-06-22T01:45:55;17.63;;;16.08;;
15454;SDS011;21057;51.024;7.540;2023-06-22T01:48:25;16.90;;;15.75;;
15454;SDS011;21057;51.024;7.540;2023-06-22T01:50:55;16.27;;;15.18;;
15454;SDS011;21057;51.024;7.540;2023-06-22T01:53:23;16.73;;;15.63;;
15454;SDS011;21057;51.024;7.540;2023-06-22T01:55:51;16.60;;;15.52;;
15454;SDS011;21057;51.024;7.540;2023-06-22T01:58:21;16.60;;;15.40;;
15454;SDS011;21057;51.024;7.540;2023-06-22T02:00:56;16.95;;;15.85;;
15454;SDS011;21057;51.024;7.540;2023-06-22T02:03:30;17.77;;;16.30;;
15454;SDS011;21057;51.024;7.540;2023-06-22T02:06:17;17.67;;;16.48;;
15454;SDS011;21057;51.024;7.540;2023-06-22T02:08:51;16.92;;;15.75;;
15454;SDS011;21057;51.024;7.540;2023-06-22T02:11:23;17.05;;;15.85;;
15454;SDS011;21057;51.024;7.540;2023-06-22T02:13:55;17.50;;;16.10;;
15454;SDS011;21057;51.024;7.540;2023-06-22T02:16:26;16.77;;;15.38;;
15454;SDS011;21057;51.024;7.540;2023-06-22T02:18:55;17.75;;;16.45;;
15454;SDS011;21057;51.024;7.540;2023-06-22T02:21:28;17.98;;;16.67;;
15454;SDS011;21057;51.024;7.540;2023-06-22T02:23:56;18.15;;;16.80;;
15454;SDS011;21057;51.024;7.540;2023-06-22T02:26:23;18.15;;;16.15;;
15454;SDS011;21057;51.024;7.540;2023-06-22T02:28:51;17.35;;;16.23;;
15454;SDS011;21057;51.024;7.540;2023-06-22T02:31:18;18.05;;;16.65;;
15454;SDS011;21057;51.024;7.540;2023-06-22T02:33:57;17.83;;;16.67;;
15454;SDS011;21057;51.024;7.540;2023-06-22T02:36:25;17.83;;;16.52;;
15454;SDS011;21057;51.024;7.540;2023-06-22T02:38:55;17.45;;;16.35;;
15454;SDS011;21057;51.024;7.540;2023-06-22T02:41:26;17.20;;;16.10;;
15454;SDS011;21057;51.024;7.540;2023-06-22T02:43:53;17.75;;;16.42;;
15454;SDS011;21057;51.024;7.540;2023-06-22T02:46:21;18.13;;;16.92;;
15454;SDS011;21057;51.024;7.540;2023-06-22T02:48:48;18.20;;;16.92;;
15454;SDS011;21057;51.024;7.540;2023-06-22T02:51:19;18.17;;;16.98;;
15454;SDS011;21057;51.024;7.540;2023-06-22T02:53:47;18.48;;;17.05;;
15454;SDS011;21057;51.024;7.540;2023-06-22T02:56:18;18.25;;;16.92;;
15454;SDS011;21057;51.024;7.540;2023-06-22T02:58:49;18.20;;;16.80;;
15454;SDS011;21057;51.024;7.540;2023-06-22T03:01:19;17.88;;;16.60;;
15454;SDS011;21057;51.024;7.540;2023-06-22T03:03:51;18.05;;;16.83;;
15454;SDS011;21057;51.024;7.540;2023-06-22T03:06:22;18.08;;;16.98;;
15454;SDS011;21057;51.024;7.540;2023-06-22T03:08:56;18.35;;;16.85;;
15454;SDS011;21057;51.024;7.540;2023-06-22T03:11:30;17.35;;;16.15;;
15454;SDS011;21057;51.024;7.540;2023-06-22T03:13:58;18.17;;;16.88;;
15454;SDS011;21057;51.024;7.540;2023-06-22T03:16:26;18.38;;;17.02;;
15454;SDS011;21057;51.024;7.540;2023-06-22T03:18:53;17.17;;;15.98;;
15454;SDS011;21057;51.024;7.540;2023-06-22T03:21:22;17.60;;;16.35;;
15454;SDS011;21057;51.024;7.540;2023-06-22T03:23:50;18.17;;;16.77;;
15454;SDS011;21057;51.024;7.540;2023-06-22T03:26:17;17.52;;;16.27;;
15454;SDS011;21057;51.024;7.540;2023-06-22T03:28:45;18.02;;;16.58;;
15454;SDS011;21057;51.024;7.540;2023-06-22T03:31:13;17.92;;;16.55;;
15454;SDS011;21057;51.024;7.540;2023-06-22T03:33:40;18.17;;;16.77;;
15454;SDS011;21057;51.024;7.540;2023-06-22T03:36:07;16.63;;;15.40;;
15454;SDS011;21057;51.024;7.540;2023-06-22T03:38:36;18.08;;;16.88;;
15454;SDS011;21057;51.024;7.540;2023-06-22T03:41:03;19.17;;;17.70;;
15454;SDS011;21057;51.024;7.540;2023-06-22T03:43:30;18.50;;;17.20;;
15454;SDS011;21057;51.024;7.540;2023-06-22T03:45:57;17.98;;;16.67;;
15454;SDS011;21057;51.024;7.540;2023-06-22T03:48:24;18.15;;;16.85;;
15454;SDS011;21057;51.024;7.540;2023-06-22T03:50:51;19.00;;;17.70;;
15454;SDS011;21057;51.024;7.540;2023-06-22T03:53:18;18.77;;;17.38;;
15454;SDS011;21057;51.024;7.540;2023-06-22T03:55:52;18.48;;;17.17;;
15454;SDS011;21057;51.024;7.540;2023-06-22T03:58:20;17.73;;;16.50;;
15454;SDS011;21057;51.024;7.540;2023-06-22T04:00:48;18.20;;;16.80;;
15454;SDS011;21057;51.024;7.540;2023-06-22T04:03:18;17.90;;;16.67;;
15454;SDS011;21057;51.024;7.540;2023-06-22T04:05:46;17.52;;;16.02;;
15454;SDS011;21057;51.024;7.540;2023-06-22T04:08:13;18.00;;;16.75;;
15454;SDS011;21057;51.024;7.540;2023-06-22T04:10:44;17.42;;;16.13;;
15454;SDS011;21057;51.024;7.540;2023-06-22T04:13:27;17.85;;;16.55;;
15454;SDS011;21057;51.024;7.540;2023-06-22T04:15:56;19.52;;;18.23;;
15454;SDS011;21057;51.024;7.540;2023-06-22T04:18:29;19.02;;;17.38;;
15454;SDS011;21057;51.024;7.540;2023-06-22T04:21:13;18.83;;;17.52;;
15454;SDS011;21057;51.024;7.540;2023-06-22T04:23:48;19.42;;;17.85;;
15454;SDS011;21057;51.024;7.540;2023-06-22T04:26:16;19.10;;;17.70;;
15454;SDS011;21057;51.024;7.540;2023-06-22T04:28:51;20.85;;;19.25;;
15454;SDS011;21057;51.024;7.540;2023-06-22T04:31:23;20.75;;;19.15;;
15454;SDS011;21057;51.024;7.540;2023-06-22T04:33:57;19.10;;;17.73;;
15454;SDS011;21057;51.024;7.540;2023-06-22T04:36:33;19.35;;;17.88;;
15454;SDS011;21057;51.024;7.540;2023-06-22T04:39:08;19.55;;;18.13;;
15454;SDS011;21057;51.024;7.540;2023-06-22T04:41:36;19.42;;;18.00;;
15454;SDS011;21057;51.024;7.540;2023-06-22T04:44:15;20.13;;;18.58;;
15454;SDS011;21057;51.024;7.540;2023-06-22T04:46:48;20.08;;;18.45;;
15454;SDS011;21057;51.024;7.540;2023-06-22T04:49:20;19.75;;;18.27;;
15454;SDS011;21057;51.024;7.540;2023-06-22T04:51:49;20.05;;;18.63;;
15454;SDS011;21057;51.024;7.540;2023-06-22T04:54:20;19.70;;;18.30;;
15454;SDS011;21057;51.024;7.540;2023-06-22T04:56:51;19.35;;;17.77;;
15454;SDS011;21057;51.024;7.540;2023-06-22T04:59:27;19.70;;;18.20;;
15454;SDS011;21057;51.024;7.540;2023-06-22T05:01:59;20.67;;;19.17;;
15454;SDS011;21057;51.024;7.540;2023-06-22T05:04:30;20.02;;;18.42;;
15454;SDS011;21057;51.024;7.540;2023-06-22T05:06:58;21.52;;;19.50;;
15454;SDS011;21057;51.024;7.540;2023-06-22T05:09:27;19.75;;;18.35;;
15454;SDS011;21057;51.024;7.540;2023-06-22T05:11:54;20.40;;;18.90;;
15454;SDS011;21057;51.024;7.540;2023-06-22T05:14:22;21.35;;;19.65;;
15454;SDS011;21057;51.024;7.540;2023-06-22T05:16:52;20.60;;;19.08;;
15454;SDS011;21057;51.024;7.540;2023-06-22T05:19:19;20.50;;;19.10;;
15454;SDS011;21057;51.024;7.540;2023-06-22T05:21:46;20.08;;;18.35;;
15454;SDS011;21057;51.024;7.540;2023-06-22T05:24:14;19.75;;;18.30;;
15454;SDS011;21057;51.024;7.540;2023-06-22T05:26:41;19.42;;;17.92;;
15454;SDS011;21057;51.024;7.540;2023-06-22T05:29:08;20.40;;;18.88;;
15454;SDS011;21057;51.024;7.540;2023-06-22T05:31:35;21.08;;;19.48;;
15454;SDS011;21057;51.024;7.540;2023-06-22T05:34:03;19.40;;;17.95;;
15454;SDS011;21057;51.024;7.540;2023-06-22T05:36:30;18.80;;;17.50;;
15454;SDS011;21057;51.024;7.540;2023-06-22T05:38:57;20.25;;;18.75;;
15454;SDS011;21057;51.024;7.540;2023-06-22T05:41:27;20.77;;;19.08;;
15454;SDS011;21057;51.024;7.540;2023-06-22T05:43:56;20.63;;;19.13;;
15454;SDS011;21057;51.024;7.540;2023-06-22T05:46:23;20.33;;;18.98;;
15454;SDS011;21057;51.024;7.540;2023-06-22T05:48:50;21.10;;;19.65;;
15454;SDS011;21057;51.024;7.540;2023-06-22T05:51:18;20.70;;;19.25;;
15454;SDS011;21057;51.024;7.540;2023-06-22T05:53:48;20.73;;;19.23;;
15454;SDS011;21057;51.024;7.540;2023-06-22T05:56:15;20.73;;;19.23;;
15454;SDS011;21057;51.024;7.540;2023-06-22T05:58:42;21.15;;;19.42;;
15454;SDS011;21057;51.024;7.540;2023-06-22T06:01:13;20.20;;;18.70;;
15454;SDS011;21057;51.024;7.540;2023-06-22T06:03:40;20.48;;;19.08;;
15454;SDS011;21057;51.024;7.540;2023-06-22T06:06:07;19.63;;;18.23;;
15454;SDS011;21057;51.024;7.540;2023-06-22T06:08:37;20.55;;;19.02;;
15454;SDS011;21057;51.024;7.540;2023-06-22T06:11:04;20.75;;;19.00;;
15454;SDS011;21057;51.024;7.540;2023-06-22T06:13:31;21.20;;;19.65;;
15454;SDS011;21057;51.024;7.540;2023-06-22T06:15:57;22.00;;;20.30;;
15454;SDS011;21057;51.024;7.540;2023-06-22T06:18:24;21.20;;;19.70;;
15454;SDS011;21057;51.024;7.540;2023-06-22T06:20:51;21.35;;;19.85;;
15454;SDS011;21057;51.024;7.540;2023-06-22T06:23:18;21.33;;;19.92;;
15454;SDS011;21057;51.024;7.540;2023-06-22T06:25:46;21.73;;;20.13;;
15454;SDS011;21057;51.024;7.540;2023-06-22T06:28:13;20.92;;;19.42;;
15454;SDS011;21057;51.024;7.540;2023-06-22T06:30:40;20.95;;;19.52;;
15454;SDS011;21057;51.024;7.540;2023-06-22T06:33:07;20.88;;;19.38;;
15454;SDS011;21057;51.024;7.540;2023-06-22T06:35:34;20.95;;;19.50;;
15454;SDS011;21057;51.024;7.540;2023-06-22T06:38:01;20.50;;;19.10;;
15454;SDS011;21057;51.024;7.540;2023-06-22T06:40:28;20.40;;;18.98;;
15454;SDS011;21057;51.024;7.540;2023-06-22T06:42:56;20.40;;;19.00;;
15454;SDS011;21057;51.024;7.540;2023-06-22T06:45:23;21.27;;;19.50;;
15454;SDS011;21057;51.024;7.540;2023-06-22T06:47:52;20.35;;;19.05;;
15454;SDS011;21057;51.024;7.540;2023-06-22T06:50:19;19.25;;;17.88;;
15454;SDS011;21057;51.024;7.540;2023-06-22T06:52:46;19.90;;;18.40;;
15454;SDS011;21057;51.024;7.540;2023-06-22T06:55:15;20.05;;;18.58;;
15454;SDS011;21057;51.024;7.540;2023-06-22T06:57:42;20.15;;;18.67;;
15454;SDS011;21057;51.024;7.540;2023-06-22T07:00:11;19.17;;;17.88;;
15454;SDS011;21057;51.024;7.540;2023-06-22T07:02:40;19.38;;;18.05;;
15454;SDS011;21057;51.024;7.540;2023-06-22T07:05:08;20.55;;;18.85;;
15454;SDS011;21057;51.024;7.540;2023-06-22T07:07:35;19.60;;;18.13;;
15454;SDS011;21057;51.024;7.540;2023-06-22T07:10:02;19.55;;;18.25;;
15454;SDS011;21057;51.024;7.540;2023-06-22T07:12:30;19.38;;;18.08;;
15454;SDS011;21057;51.024;7.540;2023-06-22T07:15:03;19.27;;;17.88;;
15454;SDS011;21057;51.024;7.540;2023-06-22T07:17:34;18.58;;;17.38;;
15454;SDS011;21057;51.024;7.540;2023-06-22T07:20:03;18.30;;;17.17;;
15454;SDS011;21057;51.024;7.540;2023-06-22T07:22:35;18.70;;;17.55;;
15454;SDS011;21057;51.024;7.540;2023-06-22T07:25:02;18.42;;;17.23;;
15454;SDS011;21057;51.024;7.540;2023-06-22T07:27:34;18.67;;;17.48;;
15454;SDS011;21057;51.024;7.540;2023-06-22T07:30:03;19.42;;;18.13;;
15454;SDS011;21057;51.024;7.540;2023-06-22T07:32:30;19.15;;;17.75;;
15454;SDS011;21057;51.024;7.540;2023-06-22T07:34:59;19.38;;;18.10;;
15454;SDS011;21057;51.024;7.540;2023-06-22T07:37:26;19.73;;;18.45;;
15454;SDS011;21057;51.024;7.540;2023-06-22T07:39:54;19.95;;;18.50;;
15454;SDS011;21057;51.024;7.540;2023-06-22T07:42:23;19.77;;;18.48;;
15454;SDS011;21057;51.024;7.540;2023-06-22T07:44:50;19.77;;;18.48;;
15454;SDS011;21057;51.024;7.540;2023-06-22T07:47:17;19.30;;;18.02;;
15454;SDS011;21057;51.024;7.540;2023-06-22T07:49:44;19.25;;;17.95;;
15454;SDS011;21057;51.024;7.540;2023-06-22T07:52:12;19.02;;;17.73;;
15454;SDS011;21057;51.024;7.540;2023-06-22T07:54:39;19.77;;;18.48;;
15454;SDS011;21057;51.024;7.540;2023-06-22T07:57:06;19.95;;;18.65;;
15454;SDS011;21057;51.024;7.540;2023-06-22T07:59:33;19.98;;;18.58;;
15454;SDS011;21057;51.024;7.540;2023-06-22T08:02:00;20.60;;;19.15;;
15454;SDS011;21057;51.024;7.540;2023-06-22T08:04:28;19.60;;;18.30;;
15454;SDS011;21057;51.024;7.540;2023-06-22T08:06:56;19.10;;;17.85;;
15454;SDS011;21057;51.024;7.540;2023-06-22T08:09:24;18.83;;;17.55;;
15454;SDS011;21057;51.024;7.540;2023-06-22T08:11:50;19.20;;;17.90;;
15454;SDS011;21057;51.024;7.540;2023-06-22T08:14:17;17.98;;;16.77;;
15454;SDS011;21057;51.024;7.540;2023-06-22T08:16:44;17.60;;;16.48;;
15454;SDS011;21057;51.024;7.540;2023-06-22T08:19:11;18.52;;;17.33;;
15454;SDS011;21057;51.024;7.540;2023-06-22T08:21:38;18.30;;;17.10;;
15454;SDS011;21057;51.024;7.540;2023-06-22T08:24:05;18.27;;;16.98;;
15454;SDS011;21057;51.024;7.540;2023-06-22T08:26:34;17.83;;;16.67;;
15454;SDS011;21057;51.024;7.540;2023-06-22T08:29:02;17.75;;;16.55;;
15454;SDS011;21057;51.024;7.540;2023-06-22T08:31:29;18.48;;;17.13;;
15454;SDS011;21057;51.024;7.540;2023-06-22T08:33:57;18.00;;;16.80;;
15454;SDS011;21057;51.024;7.540;2023-06-22T08:36:23;18.77;;;17.42;;
15454;SDS011;21057;51.024;7.540;2023-06-22T08:38:50;18.65;;;17.45;;
15454;SDS011;21057;51.024;7.540;2023-06-22T08:41:17;19.13;;;17.50;;
15454;SDS011;21057;51.024;7.540;2023-06-22T08:43:45;18.98;;;17.67;;
15454;SDS011;21057;51.024;7.540;2023-06-22T08:46:12;19.17;;;17.75;;
15454;SDS011;21057;51.024;7.540;2023-06-22T08:48:39;18.83;;;17.42;;
15454;SDS011;21057;51.024;7.540;2023-06-22T08:51:05;17.85;;;16.55;;
15454;SDS011;21057;51.024;7.540;2023-06-22T08:53:32;19.05;;;17.65;;
15454;SDS011;21057;51.024;7.540;2023-06-22T08:56:00;19.20;;;17.80;;
15454;SDS011;21057;51.024;7.540;2023-06-22T08:58:27;18.25;;;16.73;;
15454;SDS011;21057;51.024;7.540;2023-06-22T09:00:55;18.90;;;17.70;;
15454;SDS011;21057;51.024;7.540;2023-06-22T09:03:21;18.98;;;17.67;;
15454;SDS011;21057;51.024;7.540;2023-06-22T09:05:52;18.35;;;17.05;;
15454;SDS011;21057;51.024;7.540;2023-06-22T09:08:19;19.75;;;18.05;;
15454;SDS011;21057;51.024;7.540;2023-06-22T09:10:46;18.45;;;17.20;;
15454;SDS011;21057;51.024;7.540;2023-06-22T09:13:24;19.90;;;18.50;;
15454;SDS011;21057;51.024;7.540;2023-06-22T09:15:52;20.00;;;18.50;;
15454;SDS011;21057;51.024;7.540;2023-06-22T09:18:20;19.85;;;18.25;;
15454;SDS011;21057;51.024;7.540;2023-06-22T09:20:47;18.70;;;17.30;;
15454;SDS011;21057;51.024;7.540;2023-06-22T09:23:14;19.13;;;17.73;;
15454;SDS011;21057;51.024;7.540;2023-06-22T09:25:41;18.95;;;17.73;;
15454;SDS011;21057;51.024;7.540;2023-06-22T09:28:08;19.50;;;18.00;;
15454;SDS011;21057;51.024;7.540;2023-06-22T09:30:35;20.13;;;18.45;;
15454;SDS011;21057;51.024;7.540;2023-06-22T09:33:01;19.50;;;18.00;;
15454;SDS011;21057;51.024;7.540;2023-06-22T09:35:29;19.02;;;17.48;;
15454;SDS011;21057;51.024;7.540;2023-06-22T09:37:56;18.73;;;17.42;;
15454;SDS011;21057;51.024;7.540;2023-06-22T09:40:23;18.13;;;16.83;;
15454;SDS011;21057;51.024;7.540;2023-06-22T09:42:53;19.15;;;17.83;;
15454;SDS011;21057;51.024;7.540;2023-06-22T09:45:20;17.80;;;16.60;;
15454;SDS011;21057;51.024;7.540;2023-06-22T09:47:47;18.73;;;17.35;;
15454;SDS011;21057;51.024;7.540;2023-06-22T09:50:14;18.17;;;16.95;;
15454;SDS011;21057;51.024;7.540;2023-06-22T09:52:42;18.42;;;17.13;;
15454;SDS011;21057;51.024;7.540;2023-06-22T09:55:11;19.98;;;18.65;;
15454;SDS011;21057;51.024;7.540;2023-06-22T09:57:40;18.95;;;17.65;;
15454;SDS011;21057;51.024;7.540;2023-06-22T10:00:07;18.63;;;17.42;;
15454;SDS011;21057;51.024;7.540;2023-06-22T10:02:36;19.60;;;18.20;;
15454;SDS011;21057;51.024;7.540;2023-06-22T10:05:03;18.88;;;17.67;;
15454;SDS011;21057;51.024;7.540;2023-06-22T10:07:30;19.20;;;17.90;;
15454;SDS011;21057;51.024;7.540;2023-06-22T10:09:58;19.00;;;17.70;;
15454;SDS011;21057;51.024;7.540;2023-06-22T10:12:26;20.02;;;18.52;;
15454;SDS011;21057;51.024;7.540;2023-06-22T10:14:53;19.55;;;18.13;;
15454;SDS011;21057;51.024;7.540;2023-06-22T10:17:20;18.60;;;17.30;;
15454;SDS011;21057;51.024;7.540;2023-06-22T10:19:47;19.08;;;17.67;;
15454;SDS011;21057;51.024;7.540;2023-06-22T10:22:14;18.65;;;17.30;;
15454;SDS011;21057;51.024;7.540;2023-06-22T10:24:40;18.15;;;16.92;;
15454;SDS011;21057;51.024;7.540;2023-06-22T10:27:11;19.30;;;17.80;;
15454;SDS011;21057;51.024;7.540;2023-06-22T10:29:38;19.13;;;17.67;;
15454;SDS011;21057;51.024;7.540;2023-06-22T10:32:06;18.70;;;17.40;;
15454;SDS011;21057;51.024;7.540;2023-06-22T10:34:33;19.42;;;18.02;;
15454;SDS011;21057;51.024;7.540;2023-06-22T10:37:00;19.63;;;18.05;;
15454;SDS011;21057;51.024;7.540;2023-06-22T10:39:27;19.85;;;18.45;;
15454;SDS011;21057;51.024;7.540;2023-06-22T10:41:53;19.52;;;18.13;;
15454;SDS011;21057;51.024;7.540;2023-06-22T10:44:22;19.60;;;18.20;;
15454;SDS011;21057;51.024;7.540;2023-06-22T10:46:49;19.65;;;17.95;;
15454;SDS011;21057;51.024;7.540;2023-06-22T10:49:16;19.60;;;18.00;;
15454;SDS011;21057;51.024;7.540;2023-06-22T10:51:42;19.65;;;18.23;;
15454;SDS011;21057;51.024;7.540;2023-06-22T10:54:09;18.67;;;17.30;;
15454;SDS011;21057;51.024;7.540;2023-06-22T10:56:38;19.30;;;18.00;;
15454;SDS011;21057;51.024;7.540;2023-06-22T10:59:05;19.70;;;18.10;;
15454;SDS011;21057;51.024;7.540;2023-06-22T11:01:33;21.25;;;19.55;;
15454;SDS011;21057;51.024;7.540;2023-06-22T11:04:01;20.85;;;19.38;;
15454;SDS011;21057;51.024;7.540;2023-06-22T11:06:31;21.58;;;19.92;;
15454;SDS011;21057;51.024;7.540;2023-06-22T11:08:59;22.20;;;20.50;;
15454;SDS011;21057;51.024;7.540;2023-06-22T11:11:36;22.98;;;21.08;;
15454;SDS011;21057;51.024;7.540;2023-06-22T11:14:03;21.17;;;19.63;;
15454;SDS011;21057;51.024;7.540;2023-06-22T11:16:30;23.23;;;21.48;;
15454;SDS011;21057;51.024;7.540;2023-06-22T11:18:58;21.70;;;20.10;;
15454;SDS011;21057;51.024;7.540;2023-06-22T11:21:25;21.55;;;20.02;;
15454;SDS011;21057;51.024;7.540;2023-06-22T11:23:52;21.10;;;19.60;;
15454;SDS011;21057;51.024;7.540;2023-06-22T11:26:18;20.80;;;19.35;;
15454;SDS011;21057;51.024;7.540;2023-06-22T11:28:46;21.67;;;19.98;;
15454;SDS011;21057;51.024;7.540;2023-06-22T11:31:13;20.75;;;19.17;;
15454;SDS011;21057;51.024;7.540;2023-06-22T11:33:40;20.50;;;19.10;;
15454;SDS011;21057;51.024;7.540;2023-06-22T11:36:08;21.67;;;20.17;;
15454;SDS011;21057;51.024;7.540;2023-06-22T11:38:36;21.08;;;19.50;;
15454;SDS011;21057;51.024;7.540;2023-06-22T11:41:04;21.40;;;19.90;;
15454;SDS011;21057;51.024;7.540;2023-06-22T11:43:31;21.58;;;19.83;;
15454;SDS011;21057;51.024;7.540;2023-06-22T11:45:58;22.60;;;20.80;;
15454;SDS011;21057;51.024;7.540;2023-06-22T11:48:25;22.77;;;21.17;;
15454;SDS011;21057;51.024;7.540;2023-06-22T11:50:53;22.92;;;21.33;;
15454;SDS011;21057;51.024;7.540;2023-06-22T11:53:23;23.85;;;21.90;;
15454;SDS011;21057;51.024;7.540;2023-06-22T11:55:52;26.58;;;24.38;;
15454;SDS011;21057;51.024;7.540;2023-06-22T11:58:20;26.95;;;24.90;;
15454;SDS011;21057;51.024;7.540;2023-06-22T12:00:47;25.70;;;23.70;;
15454;SDS011;21057;51.024;7.540;2023-06-22T12:03:15;23.75;;;21.83;;
15454;SDS011;21057;51.024;7.540;2023-06-22T12:05:42;23.90;;;22.08;;
15454;SDS011;21057;51.024;7.540;2023-06-22T12:08:09;21.08;;;19.50;;
15454;SDS011;21057;51.024;7.540;2023-06-22T12:10:38;22.33;;;20.75;;
15454;SDS011;21057;51.024;7.540;2023-06-22T12:13:05;21.27;;;19.92;;
15454;SDS011;21057;51.024;7.540;2023-06-22T12:15:32;20.60;;;19.30;;
15454;SDS011;21057;51.024;7.540;2023-06-22T12:18:12;22.27;;;20.70;;
15454;SDS011;21057;51.024;7.540;2023-06-22T12:20:43;22.48;;;21.13;;
15454;SDS011;21057;51.024;7.540;2023-06-22T12:23:11;21.45;;;20.00;;
15454;SDS011;21057;51.024;7.540;2023-06-22T12:25:40;21.67;;;20.15;;
15454;SDS011;21057;51.024;7.540;2023-06-22T12:28:07;20.88;;;19.58;;
15454;SDS011;21057;51.024;7.540;2023-06-22T12:30:34;20.08;;;18.88;;
15454;SDS011;21057;51.024;7.540;2023-06-22T12:33:00;19.08;;;17.98;;
15454;SDS011;21057;51.024;7.540;2023-06-22T12:35:27;19.95;;;18.75;;
15454;SDS011;21057;51.024;7.540;2023-06-22T12:37:54;19.77;;;18.45;;
15454;SDS011;21057;51.024;7.540;2023-06-22T12:40:21;19.60;;;18.40;;
15454;SDS011;21057;51.024;7.540;2023-06-22T12:42:49;19.10;;;17.98;;
15454;SDS011;21057;51.024;7.540;2023-06-22T12:45:16;20.10;;;18.90;;
15454;SDS011;21057;51.024;7.540;2023-06-22T12:47:43;20.30;;;18.92;;
15454;SDS011;21057;51.024;7.540;2023-06-22T12:50:10;19.70;;;18.40;;
15454;SDS011;21057;51.024;7.540;2023-06-22T12:52:37;19.73;;;18.42;;
15454;SDS011;21057;51.024;7.540;2023-06-22T12:55:06;20.48;;;19.15;;
15454;SDS011;21057;51.024;7.540;2023-06-22T12:57:33;20.00;;;18.80;;
15454;SDS011;21057;51.024;7.540;2023-06-22T13:00:02;20.67;;;19.25;;
15454;SDS011;21057;51.024;7.540;2023-06-22T13:02:30;20.33;;;18.80;;
15454;SDS011;21057;51.024;7.540;2023-06-22T13:04:57;21.13;;;19.60;;
15454;SDS011;21057;51.024;7.540;2023-06-22T13:07:24;22.17;;;20.45;;
15454;SDS011;21057;51.024;7.540;2023-06-22T13:09:51;22.73;;;21.13;;
15454;SDS011;21057;51.024;7.540;2023-06-22T13:12:22;21.73;;;20.25;;
15454;SDS011;21057;51.024;7.540;2023-06-22T13:14:49;25.02;;;22.92;;
15454;SDS011;21057;51.024;7.540;2023-06-22T13:17:17;22.92;;;21.13;;
15454;SDS011;21057;51.024;7.540;2023-06-22T13:19:47;23.50;;;21.77;;
15454;SDS011;21057;51.024;7.540;2023-06-22T13:22:27;23.33;;;21.63;;
15454;SDS011;21057;51.024;7.540;2023-06-22T13:24:55;23.67;;;22.00;;
15454;SDS011;21057;51.024;7.540;2023-06-22T13:27:22;23.70;;;21.98;;
15454;SDS011;21057;51.024;7.540;2023-06-22T13:29:50;23.67;;;21.88;;
15454;SDS011;21057;51.024;7.540;2023-06-22T13:32:18;24.75;;;22.85;;
15454;SDS011;21057;51.024;7.540;2023-06-22T13:34:45;22.27;;;20.60;;
15454;SDS011;21057;51.024;7.540;2023-06-22T13:37:12;22.67;;;20.95;;
15454;SDS011;21057;51.024;7.540;2023-06-22T13:39:39;22.98;;;21.05;;
15454;SDS011;21057;51.024;7.540;2023-06-22T13:42:06;22.55;;;20.85;;
15454;SDS011;21057;51.024;7.540;2023-06-22T13:44:33;23.08;;;21.48;;
15454;SDS011;21057;51.024;7.540;2023-06-22T13:47:00;21.90;;;20.40;;
15454;SDS011;21057;51.024;7.540;2023-06-22T13:49:28;23.00;;;21.20;;
15454;SDS011;21057;51.024;7.540;2023-06-22T13:51:55;23.38;;;21.60;;
15454;SDS011;21057;51.024;7.540;2023-06-22T13:54:22;22.08;;;20.48;;
15454;SDS011;21057;51.024;7.540;2023-06-22T13:56:49;21.58;;;19.98;;
15454;SDS011;21057;51.024;7.540;2023-06-22T13:59:15;23.05;;;21.25;;
15454;SDS011;21057;51.024;7.540;2023-06-22T14:01:42;23.35;;;21.42;;
15454;SDS011;21057;51.024;7.540;2023-06-22T14:04:09;21.92;;;20.30;;
15454;SDS011;21057;51.024;7.540;2023-06-22T14:06:38;22.50;;;20.77;;
15454;SDS011;21057;51.024;7.540;2023-06-22T14:09:05;22.52;;;20.83;;
15454;SDS011;21057;51.024;7.540;2023-06-22T14:11:32;23.38;;;21.55;;
15454;SDS011;21057;51.024;7.540;2023-06-22T14:13:58;22.88;;;21.27;;
15454;SDS011;21057;51.024;7.540;2023-06-22T14:16:25;22.58;;;20.92;;
15454;SDS011;21057;51.024;7.540;2023-06-22T14:18:52;22.48;;;20.88;;
15454;SDS011;21057;51.024;7.540;2023-06-22T14:21:19;21.38;;;19.77;;
15454;SDS011;21057;51.024;7.540;2023-06-22T14:23:47;20.58;;;19.17;;
15454;SDS011;21057;51.024;7.540;2023-06-22T14:26:15;20.23;;;18.83;;
15454;SDS011;21057;51.024;7.540;2023-06-22T14:28:43;20.02;;;18.52;;
15454;SDS011;21057;51.024;7.540;2023-06-22T14:31:13;21.13;;;19.52;;
15454;SDS011;21057;51.024;7.540;2023-06-22T14:33:40;20.60;;;18.88;;
15454;SDS011;21057;51.024;7.540;2023-06-22T14:36:09;20.88;;;19.38;;